Impacts TAF Board
For situational awareness. Not to be used for flight planning purposes.
IDs:

KOKC - Oklahoma City/Will R, OK, US

Issued at 1720 UTC 21 May 2022
Updated at 2205 UTC 21 May 2022
Potential Impact None Slight Moderate High
Time<<22/23Z 23/00Z 23/01Z 23/02Z 23/03Z 23/04Z 23/05Z 23/06Z 23/07Z 23/08Z 23/09Z 23/10Z 23/11Z
Type
VIS
CIG
Cover
FltCat
WX
WDir
WSpd
WGst
WSHgt
WSDir
WSSpd
R13/31
XWnd 0 0 0 0 0 0 0 0 0 0 0 0 0
HWnd 0 0 0 0 0 0 0 0 0 0 0 0 0
R17/35
XWnd 0 0 0 0 0 0 0 0 0 0 0 0 0
HWnd 0 0 0 0 0 0 0 0 0 0 0 0 0
R18/36
XWnd 0 0 0 0 0 0 0 0 0 0 0 0 0
HWnd 0 0 0 0 0 0 0 0 0 0 0 0 0
Raw TAF
KOKC 211720Z 2118/2218 01017G28KT P6SM OVC035
  TEMPO 2118/2120 OVC025
  FM220100 02014G23KT P6SM SCT050 SCT250
  FM220600 03011KT P6SM SKC
  FM221400 04013KT P6SM FEW250


METAR Board
Radar Display
Forecast Discussion
For situational awareness. Not to be used for flight planning purposes.